sensor_id;sensor_type;location;lat;lon;timestamp;P1;durP1;ratioP1;P2;durP2;ratioP2
68951;SDS011;56000;51.146;17.112;2023-02-28T00:02:12;43.10;;;15.80;;
68951;SDS011;56000;51.146;17.112;2023-02-28T00:04:47;36.90;;;16.90;;
68951;SDS011;56000;51.146;17.112;2023-02-28T00:07:22;41.60;;;19.00;;
68951;SDS011;56000;51.146;17.112;2023-02-28T00:09:56;44.10;;;16.80;;
68951;SDS011;56000;51.146;17.112;2023-02-28T00:12:29;37.90;;;16.40;;
68951;SDS011;56000;51.146;17.112;2023-02-28T00:15:03;42.30;;;16.80;;
68951;SDS011;56000;51.146;17.112;2023-02-28T00:17:39;46.60;;;17.40;;
68951;SDS011;56000;51.146;17.112;2023-02-28T00:20:13;32.90;;;13.70;;
68951;SDS011;56000;51.146;17.112;2023-02-28T00:22:48;37.60;;;12.60;;
68951;SDS011;56000;51.146;17.112;2023-02-28T00:25:24;31.60;;;13.10;;
68951;SDS011;56000;51.146;17.112;2023-02-28T00:27:57;29.60;;;13.50;;
68951;SDS011;56000;51.146;17.112;2023-02-28T00:30:30;36.80;;;13.40;;
68951;SDS011;56000;51.146;17.112;2023-02-28T00:33:07;35.40;;;13.70;;
68951;SDS011;56000;51.146;17.112;2023-02-28T00:35:40;32.10;;;12.20;;
68951;SDS011;56000;51.146;17.112;2023-02-28T00:38:16;30.50;;;13.40;;
68951;SDS011;56000;51.146;17.112;2023-02-28T00:40:49;31.40;;;12.90;;
68951;SDS011;56000;51.146;17.112;2023-02-28T00:43:22;33.60;;;12.00;;
68951;SDS011;56000;51.146;17.112;2023-02-28T00:45:55;27.80;;;13.70;;
68951;SDS011;56000;51.146;17.112;2023-02-28T00:48:29;26.10;;;11.70;;
68951;SDS011;56000;51.146;17.112;2023-02-28T00:51:02;31.40;;;12.80;;
68951;SDS011;56000;51.146;17.112;2023-02-28T00:53:36;34.10;;;12.50;;
68951;SDS011;56000;51.146;17.112;2023-02-28T00:56:09;31.60;;;13.40;;
68951;SDS011;56000;51.146;17.112;2023-02-28T00:58:43;33.60;;;13.10;;
68951;SDS011;56000;51.146;17.112;2023-02-28T01:01:16;31.20;;;13.60;;
68951;SDS011;56000;51.146;17.112;2023-02-28T01:03:49;32.60;;;14.10;;
68951;SDS011;56000;51.146;17.112;2023-02-28T01:06:23;39.70;;;15.90;;
68951;SDS011;56000;51.146;17.112;2023-02-28T01:08:56;39.10;;;15.00;;
68951;SDS011;56000;51.146;17.112;2023-02-28T01:11:31;32.80;;;14.00;;
68951;SDS011;56000;51.146;17.112;2023-02-28T01:14:05;29.00;;;12.30;;
68951;SDS011;56000;51.146;17.112;2023-02-28T01:16:39;33.60;;;14.20;;
68951;SDS011;56000;51.146;17.112;2023-02-28T01:19:13;34.90;;;15.60;;
68951;SDS011;56000;51.146;17.112;2023-02-28T01:21:46;37.10;;;16.10;;
68951;SDS011;56000;51.146;17.112;2023-02-28T01:24:20;34.30;;;13.50;;
68951;SDS011;56000;51.146;17.112;2023-02-28T01:26:53;45.60;;;17.10;;
68951;SDS011;56000;51.146;17.112;2023-02-28T01:29:26;33.60;;;14.60;;
68951;SDS011;56000;51.146;17.112;2023-02-28T01:31:59;39.80;;;15.70;;
68951;SDS011;56000;51.146;17.112;2023-02-28T01:34:32;41.40;;;17.20;;
68951;SDS011;56000;51.146;17.112;2023-02-28T01:37:06;35.60;;;14.90;;
68951;SDS011;56000;51.146;17.112;2023-02-28T01:39:39;34.90;;;14.90;;
68951;SDS011;56000;51.146;17.112;2023-02-28T01:42:13;31.60;;;14.60;;
68951;SDS011;56000;51.146;17.112;2023-02-28T01:45:18;37.60;;;14.90;;
68951;SDS011;56000;51.146;17.112;2023-02-28T01:47:55;38.00;;;15.20;;
68951;SDS011;56000;51.146;17.112;2023-02-28T01:50:36;41.00;;;16.20;;
68951;SDS011;56000;51.146;17.112;2023-02-28T01:53:15;36.00;;;14.20;;
68951;SDS011;56000;51.146;17.112;2023-02-28T01:55:54;32.60;;;14.70;;
68951;SDS011;56000;51.146;17.112;2023-02-28T01:58:27;40.80;;;15.60;;
68951;SDS011;56000;51.146;17.112;2023-02-28T02:01:01;45.00;;;16.90;;
68951;SDS011;56000;51.146;17.112;2023-02-28T02:03:35;33.30;;;14.70;;
68951;SDS011;56000;51.146;17.112;2023-02-28T02:06:09;32.30;;;14.60;;
68951;SDS011;56000;51.146;17.112;2023-02-28T02:08:44;30.80;;;14.10;;
68951;SDS011;56000;51.146;17.112;2023-02-28T02:11:19;30.50;;;12.30;;
68951;SDS011;56000;51.146;17.112;2023-02-28T02:14:10;31.10;;;13.80;;
68951;SDS011;56000;51.146;17.112;2023-02-28T02:17:03;29.30;;;11.30;;
68951;SDS011;56000;51.146;17.112;2023-02-28T02:20:21;31.60;;;12.30;;
68951;SDS011;56000;51.146;17.112;2023-02-28T02:23:40;27.60;;;12.10;;
68951;SDS011;56000;51.146;17.112;2023-02-28T02:26:54;28.50;;;13.10;;
68951;SDS011;56000;51.146;17.112;2023-02-28T02:29:47;23.60;;;10.90;;
68951;SDS011;56000;51.146;17.112;2023-02-28T02:33:08;25.30;;;11.00;;
68951;SDS011;56000;51.146;17.112;2023-02-28T02:35:57;24.20;;;11.40;;
68951;SDS011;56000;51.146;17.112;2023-02-28T02:38:36;32.60;;;12.20;;
68951;SDS011;56000;51.146;17.112;2023-02-28T02:41:22;30.40;;;11.80;;
68951;SDS011;56000;51.146;17.112;2023-02-28T02:44:04;25.90;;;11.20;;
68951;SDS011;56000;51.146;17.112;2023-02-28T02:46:43;28.10;;;12.80;;
68951;SDS011;56000;51.146;17.112;2023-02-28T02:49:20;29.40;;;11.80;;
68951;SDS011;56000;51.146;17.112;2023-02-28T02:51:58;25.40;;;11.80;;
68951;SDS011;56000;51.146;17.112;2023-02-28T02:54:37;32.30;;;13.30;;
68951;SDS011;56000;51.146;17.112;2023-02-28T02:57:14;22.80;;;10.70;;
68951;SDS011;56000;51.146;17.112;2023-02-28T02:59:51;24.20;;;10.60;;
68951;SDS011;56000;51.146;17.112;2023-02-28T03:02:26;25.60;;;10.90;;
68951;SDS011;56000;51.146;17.112;2023-02-28T03:05:06;23.00;;;11.30;;
68951;SDS011;56000;51.146;17.112;2023-02-28T03:07:48;24.10;;;10.90;;
68951;SDS011;56000;51.146;17.112;2023-02-28T03:10:36;25.60;;;12.30;;
68951;SDS011;56000;51.146;17.112;2023-02-28T03:13:29;23.30;;;10.80;;
68951;SDS011;56000;51.146;17.112;2023-02-28T03:16:31;23.00;;;10.90;;
68951;SDS011;56000;51.146;17.112;2023-02-28T03:19:39;23.00;;;12.00;;
68951;SDS011;56000;51.146;17.112;2023-02-28T03:22:32;22.70;;;11.00;;
68951;SDS011;56000;51.146;17.112;2023-02-28T03:25:18;27.30;;;10.80;;
68951;SDS011;56000;51.146;17.112;2023-02-28T03:28:04;29.30;;;11.90;;
68951;SDS011;56000;51.146;17.112;2023-02-28T03:30:50;34.60;;;13.30;;
68951;SDS011;56000;51.146;17.112;2023-02-28T03:33:28;35.30;;;14.70;;
68951;SDS011;56000;51.146;17.112;2023-02-28T03:36:07;21.40;;;9.40;;
68951;SDS011;56000;51.146;17.112;2023-02-28T03:38:44;26.40;;;11.80;;
68951;SDS011;56000;51.146;17.112;2023-02-28T03:41:22;23.20;;;11.10;;
68951;SDS011;56000;51.146;17.112;2023-02-28T03:44:02;30.30;;;13.40;;
68951;SDS011;56000;51.146;17.112;2023-02-28T03:46:39;30.20;;;12.60;;
68951;SDS011;56000;51.146;17.112;2023-02-28T03:49:19;28.50;;;11.60;;
68951;SDS011;56000;51.146;17.112;2023-02-28T03:51:54;26.40;;;10.90;;
68951;SDS011;56000;51.146;17.112;2023-02-28T03:54:29;26.70;;;10.60;;
68951;SDS011;56000;51.146;17.112;2023-02-28T03:57:07;27.30;;;12.00;;
68951;SDS011;56000;51.146;17.112;2023-02-28T03:59:48;30.10;;;11.20;;
68951;SDS011;56000;51.146;17.112;2023-02-28T04:02:25;28.90;;;12.90;;
68951;SDS011;56000;51.146;17.112;2023-02-28T04:04:58;27.80;;;11.70;;
68951;SDS011;56000;51.146;17.112;2023-02-28T04:07:32;28.40;;;12.10;;
68951;SDS011;56000;51.146;17.112;2023-02-28T04:10:07;21.50;;;11.30;;
68951;SDS011;56000;51.146;17.112;2023-02-28T04:12:42;23.90;;;10.60;;
68951;SDS011;56000;51.146;17.112;2023-02-28T04:15:15;26.50;;;11.80;;
68951;SDS011;56000;51.146;17.112;2023-02-28T04:17:55;24.90;;;11.40;;
68951;SDS011;56000;51.146;17.112;2023-02-28T04:20:28;26.50;;;11.20;;
68951;SDS011;56000;51.146;17.112;2023-02-28T04:23:01;21.90;;;10.30;;
68951;SDS011;56000;51.146;17.112;2023-02-28T04:25:34;21.70;;;10.20;;
68951;SDS011;56000;51.146;17.112;2023-02-28T04:28:07;25.20;;;11.30;;
68951;SDS011;56000;51.146;17.112;2023-02-28T04:30:40;22.90;;;10.30;;
68951;SDS011;56000;51.146;17.112;2023-02-28T04:33:13;24.80;;;10.90;;
68951;SDS011;56000;51.146;17.112;2023-02-28T04:35:46;27.20;;;11.80;;
68951;SDS011;56000;51.146;17.112;2023-02-28T04:38:19;20.90;;;10.70;;
68951;SDS011;56000;51.146;17.112;2023-02-28T04:40:52;22.90;;;9.70;;
68951;SDS011;56000;51.146;17.112;2023-02-28T04:43:28;22.20;;;9.50;;
68951;SDS011;56000;51.146;17.112;2023-02-28T04:46:04;23.20;;;10.30;;
68951;SDS011;56000;51.146;17.112;2023-02-28T04:48:38;20.70;;;10.00;;
68951;SDS011;56000;51.146;17.112;2023-02-28T04:51:13;25.80;;;11.00;;
68951;SDS011;56000;51.146;17.112;2023-02-28T04:53:49;27.50;;;12.70;;
68951;SDS011;56000;51.146;17.112;2023-02-28T04:56:23;32.10;;;13.30;;
68951;SDS011;56000;51.146;17.112;2023-02-28T04:58:57;23.80;;;10.80;;
68951;SDS011;56000;51.146;17.112;2023-02-28T05:01:32;26.20;;;11.00;;
68951;SDS011;56000;51.146;17.112;2023-02-28T05:04:06;23.80;;;10.40;;
68951;SDS011;56000;51.146;17.112;2023-02-28T05:06:40;23.50;;;10.80;;
68951;SDS011;56000;51.146;17.112;2023-02-28T05:09:13;26.80;;;10.90;;
68951;SDS011;56000;51.146;17.112;2023-02-28T05:11:46;26.70;;;10.40;;
68951;SDS011;56000;51.146;17.112;2023-02-28T05:14:19;17.90;;;9.30;;
68951;SDS011;56000;51.146;17.112;2023-02-28T05:16:53;23.40;;;9.10;;
68951;SDS011;56000;51.146;17.112;2023-02-28T05:19:26;27.10;;;10.50;;
68951;SDS011;56000;51.146;17.112;2023-02-28T05:21:59;21.40;;;10.90;;
68951;SDS011;56000;51.146;17.112;2023-02-28T05:24:32;24.70;;;9.70;;
68951;SDS011;56000;51.146;17.112;2023-02-28T05:27:05;24.90;;;10.00;;
68951;SDS011;56000;51.146;17.112;2023-02-28T05:29:38;21.10;;;9.70;;
68951;SDS011;56000;51.146;17.112;2023-02-28T05:32:13;21.90;;;10.90;;
68951;SDS011;56000;51.146;17.112;2023-02-28T05:34:46;26.20;;;10.50;;
68951;SDS011;56000;51.146;17.112;2023-02-28T05:37:19;26.40;;;10.60;;
68951;SDS011;56000;51.146;17.112;2023-02-28T05:39:52;18.50;;;9.10;;
68951;SDS011;56000;51.146;17.112;2023-02-28T05:42:25;26.20;;;10.90;;
68951;SDS011;56000;51.146;17.112;2023-02-28T05:44:59;23.70;;;10.40;;
68951;SDS011;56000;51.146;17.112;2023-02-28T05:47:32;19.80;;;8.70;;
68951;SDS011;56000;51.146;17.112;2023-02-28T05:50:07;19.90;;;9.30;;
68951;SDS011;56000;51.146;17.112;2023-02-28T05:52:41;35.60;;;16.10;;
68951;SDS011;56000;51.146;17.112;2023-02-28T05:55:14;41.80;;;16.20;;
68951;SDS011;56000;51.146;17.112;2023-02-28T05:57:48;45.30;;;17.70;;
68951;SDS011;56000;51.146;17.112;2023-02-28T06:00:22;46.80;;;18.70;;
68951;SDS011;56000;51.146;17.112;2023-02-28T06:02:55;82.00;;;28.30;;
68951;SDS011;56000;51.146;17.112;2023-02-28T06:05:31;74.80;;;27.20;;
68951;SDS011;56000;51.146;17.112;2023-02-28T06:08:05;52.00;;;20.60;;
68951;SDS011;56000;51.146;17.112;2023-02-28T06:10:38;26.90;;;12.60;;
68951;SDS011;56000;51.146;17.112;2023-02-28T06:13:11;23.60;;;11.50;;
68951;SDS011;56000;51.146;17.112;2023-02-28T06:15:46;21.20;;;9.70;;
68951;SDS011;56000;51.146;17.112;2023-02-28T06:18:19;26.20;;;11.20;;
68951;SDS011;56000;51.146;17.112;2023-02-28T06:20:55;28.30;;;12.80;;
68951;SDS011;56000;51.146;17.112;2023-02-28T06:23:28;25.10;;;12.40;;
68951;SDS011;56000;51.146;17.112;2023-02-28T06:26:01;25.50;;;10.30;;
68951;SDS011;56000;51.146;17.112;2023-02-28T06:28:35;20.10;;;9.60;;
68951;SDS011;56000;51.146;17.112;2023-02-28T06:31:10;18.10;;;9.20;;
68951;SDS011;56000;51.146;17.112;2023-02-28T06:33:45;18.70;;;8.10;;
68951;SDS011;56000;51.146;17.112;2023-02-28T06:36:19;20.30;;;9.10;;
68951;SDS011;56000;51.146;17.112;2023-02-28T06:38:52;22.80;;;10.80;;
68951;SDS011;56000;51.146;17.112;2023-02-28T06:41:26;24.30;;;11.20;;
68951;SDS011;56000;51.146;17.112;2023-02-28T06:44:14;22.30;;;9.50;;
68951;SDS011;56000;51.146;17.112;2023-02-28T06:46:48;15.90;;;7.90;;
68951;SDS011;56000;51.146;17.112;2023-02-28T06:49:22;14.20;;;7.60;;
68951;SDS011;56000;51.146;17.112;2023-02-28T06:51:55;17.00;;;8.70;;
68951;SDS011;56000;51.146;17.112;2023-02-28T06:54:28;18.20;;;9.30;;
68951;SDS011;56000;51.146;17.112;2023-02-28T06:57:01;18.90;;;9.10;;
68951;SDS011;56000;51.146;17.112;2023-02-28T06:59:35;15.00;;;8.20;;
68951;SDS011;56000;51.146;17.112;2023-02-28T07:02:09;18.00;;;8.30;;
68951;SDS011;56000;51.146;17.112;2023-02-28T07:04:42;16.60;;;8.60;;
68951;SDS011;56000;51.146;17.112;2023-02-28T07:07:15;17.10;;;7.80;;
68951;SDS011;56000;51.146;17.112;2023-02-28T07:09:49;14.80;;;7.10;;
68951;SDS011;56000;51.146;17.112;2023-02-28T07:12:22;14.50;;;7.70;;
68951;SDS011;56000;51.146;17.112;2023-02-28T07:14:55;16.60;;;8.90;;
68951;SDS011;56000;51.146;17.112;2023-02-28T07:17:28;16.50;;;7.80;;
68951;SDS011;56000;51.146;17.112;2023-02-28T07:20:01;16.20;;;7.80;;
68951;SDS011;56000;51.146;17.112;2023-02-28T07:22:35;20.40;;;8.90;;
68951;SDS011;56000;51.146;17.112;2023-02-28T07:25:10;17.80;;;8.60;;
68951;SDS011;56000;51.146;17.112;2023-02-28T07:27:43;16.80;;;8.40;;
68951;SDS011;56000;51.146;17.112;2023-02-28T07:30:17;17.00;;;8.40;;
68951;SDS011;56000;51.146;17.112;2023-02-28T07:32:51;16.00;;;8.00;;
68951;SDS011;56000;51.146;17.112;2023-02-28T07:35:25;14.60;;;7.70;;
68951;SDS011;56000;51.146;17.112;2023-02-28T07:38:00;12.50;;;6.90;;
68951;SDS011;56000;51.146;17.112;2023-02-28T07:40:34;14.80;;;7.30;;
68951;SDS011;56000;51.146;17.112;2023-02-28T07:43:07;18.10;;;9.70;;
68951;SDS011;56000;51.146;17.112;2023-02-28T07:45:40;16.70;;;10.20;;
68951;SDS011;56000;51.146;17.112;2023-02-28T07:48:13;18.60;;;9.60;;
68951;SDS011;56000;51.146;17.112;2023-02-28T07:50:49;17.80;;;7.60;;
68951;SDS011;56000;51.146;17.112;2023-02-28T07:55:59;15.30;;;8.80;;
68951;SDS011;56000;51.146;17.112;2023-02-28T07:58:33;19.80;;;10.00;;
68951;SDS011;56000;51.146;17.112;2023-02-28T08:01:10;16.80;;;9.10;;
68951;SDS011;56000;51.146;17.112;2023-02-28T08:03:44;14.00;;;7.70;;
68951;SDS011;56000;51.146;17.112;2023-02-28T08:06:22;17.40;;;8.60;;
68951;SDS011;56000;51.146;17.112;2023-02-28T08:08:56;17.10;;;8.90;;
68951;SDS011;56000;51.146;17.112;2023-02-28T08:11:29;17.40;;;7.80;;
68951;SDS011;56000;51.146;17.112;2023-02-28T08:14:02;15.80;;;8.00;;
68951;SDS011;56000;51.146;17.112;2023-02-28T08:16:35;16.20;;;7.80;;
68951;SDS011;56000;51.146;17.112;2023-02-28T08:19:09;13.00;;;7.00;;
68951;SDS011;56000;51.146;17.112;2023-02-28T08:21:42;15.30;;;7.70;;
68951;SDS011;56000;51.146;17.112;2023-02-28T08:24:15;11.90;;;6.80;;
68951;SDS011;56000;51.146;17.112;2023-02-28T08:26:48;10.10;;;6.20;;
68951;SDS011;56000;51.146;17.112;2023-02-28T08:29:22;12.00;;;6.60;;
68951;SDS011;56000;51.146;17.112;2023-02-28T08:31:55;11.60;;;6.40;;
68951;SDS011;56000;51.146;17.112;2023-02-28T08:34:29;12.70;;;7.60;;
68951;SDS011;56000;51.146;17.112;2023-02-28T08:37:02;11.80;;;7.00;;
68951;SDS011;56000;51.146;17.112;2023-02-28T08:39:36;11.90;;;7.00;;
68951;SDS011;56000;51.146;17.112;2023-02-28T08:42:10;14.00;;;7.10;;
68951;SDS011;56000;51.146;17.112;2023-02-28T08:44:43;12.30;;;6.50;;
68951;SDS011;56000;51.146;17.112;2023-02-28T08:47:17;13.00;;;7.30;;
68951;SDS011;56000;51.146;17.112;2023-02-28T08:49:50;9.30;;;5.60;;
68951;SDS011;56000;51.146;17.112;2023-02-28T08:52:23;11.20;;;7.10;;
68951;SDS011;56000;51.146;17.112;2023-02-28T08:55:00;8.00;;;5.50;;
68951;SDS011;56000;51.146;17.112;2023-02-28T08:57:33;9.90;;;5.80;;
68951;SDS011;56000;51.146;17.112;2023-02-28T09:00:08;10.40;;;5.30;;
68951;SDS011;56000;51.146;17.112;2023-02-28T09:02:43;7.80;;;5.00;;
68951;SDS011;56000;51.146;17.112;2023-02-28T09:05:17;12.00;;;5.50;;
68951;SDS011;56000;51.146;17.112;2023-02-28T09:07:51;7.50;;;4.50;;
68951;SDS011;56000;51.146;17.112;2023-02-28T09:10:24;7.70;;;4.30;;
68951;SDS011;56000;51.146;17.112;2023-02-28T09:12:58;9.00;;;4.50;;
68951;SDS011;56000;51.146;17.112;2023-02-28T09:15:31;8.30;;;4.50;;
68951;SDS011;56000;51.146;17.112;2023-02-28T09:18:04;9.30;;;4.90;;
68951;SDS011;56000;51.146;17.112;2023-02-28T09:20:40;9.90;;;5.00;;
68951;SDS011;56000;51.146;17.112;2023-02-28T09:23:13;8.50;;;4.70;;
68951;SDS011;56000;51.146;17.112;2023-02-28T09:25:51;10.90;;;5.20;;
68951;SDS011;56000;51.146;17.112;2023-02-28T09:28:26;8.90;;;5.50;;
68951;SDS011;56000;51.146;17.112;2023-02-28T09:30:59;11.70;;;6.60;;
68951;SDS011;56000;51.146;17.112;2023-02-28T09:33:34;9.00;;;6.30;;
68951;SDS011;56000;51.146;17.112;2023-02-28T09:36:08;11.20;;;5.80;;
68951;SDS011;56000;51.146;17.112;2023-02-28T09:38:41;9.80;;;5.60;;
68951;SDS011;56000;51.146;17.112;2023-02-28T09:41:19;9.30;;;6.20;;
68951;SDS011;56000;51.146;17.112;2023-02-28T09:43:55;10.50;;;6.00;;
68951;SDS011;56000;51.146;17.112;2023-02-28T09:46:35;12.30;;;6.50;;
68951;SDS011;56000;51.146;17.112;2023-02-28T09:49:14;11.80;;;6.20;;
68951;SDS011;56000;51.146;17.112;2023-02-28T09:51:53;9.20;;;6.10;;
68951;SDS011;56000;51.146;17.112;2023-02-28T09:54:32;9.60;;;5.80;;
68951;SDS011;56000;51.146;17.112;2023-02-28T09:57:10;9.70;;;6.20;;
68951;SDS011;56000;51.146;17.112;2023-02-28T10:00:02;11.30;;;5.90;;
68951;SDS011;56000;51.146;17.112;2023-02-28T10:02:48;10.30;;;6.20;;
68951;SDS011;56000;51.146;17.112;2023-02-28T10:05:39;9.50;;;6.00;;
68951;SDS011;56000;51.146;17.112;2023-02-28T10:08:21;9.90;;;6.20;;
68951;SDS011;56000;51.146;17.112;2023-02-28T10:10:57;11.50;;;6.40;;
68951;SDS011;56000;51.146;17.112;2023-02-28T10:13:36;10.30;;;6.00;;
68951;SDS011;56000;51.146;17.112;2023-02-28T10:16:16;12.90;;;6.00;;
68951;SDS011;56000;51.146;17.112;2023-02-28T10:18:54;9.90;;;5.10;;
68951;SDS011;56000;51.146;17.112;2023-02-28T10:21:36;8.90;;;5.10;;
68951;SDS011;56000;51.146;17.112;2023-02-28T10:24:20;12.00;;;5.10;;
68951;SDS011;56000;51.146;17.112;2023-02-28T10:27:01;8.90;;;5.10;;
68951;SDS011;56000;51.146;17.112;2023-02-28T10:29:45;8.90;;;5.00;;
68951;SDS011;56000;51.146;17.112;2023-02-28T10:32:21;12.40;;;6.00;;
68951;SDS011;56000;51.146;17.112;2023-02-28T10:34:59;7.90;;;4.80;;
68951;SDS011;56000;51.146;17.112;2023-02-28T10:37:39;10.60;;;6.00;;
68951;SDS011;56000;51.146;17.112;2023-02-28T10:40:32;8.00;;;5.00;;
68951;SDS011;56000;51.146;17.112;2023-02-28T10:43:17;10.20;;;5.90;;
68951;SDS011;56000;51.146;17.112;2023-02-28T10:45:58;10.00;;;6.00;;
68951;SDS011;56000;51.146;17.112;2023-02-28T10:51:08;11.10;;;6.40;;
68951;SDS011;56000;51.146;17.112;2023-02-28T10:53:49;10.00;;;5.70;;
68951;SDS011;56000;51.146;17.112;2023-02-28T10:56:30;8.10;;;5.20;;
68951;SDS011;56000;51.146;17.112;2023-02-28T10:59:20;9.40;;;5.30;;
68951;SDS011;56000;51.146;17.112;2023-02-28T11:01:58;10.20;;;5.10;;
68951;SDS011;56000;51.146;17.112;2023-02-28T11:04:36;12.20;;;6.30;;
68951;SDS011;56000;51.146;17.112;2023-02-28T11:07:19;9.30;;;6.50;;
68951;SDS011;56000;51.146;17.112;2023-02-28T11:09:57;10.60;;;6.40;;
68951;SDS011;56000;51.146;17.112;2023-02-28T11:12:34;11.60;;;6.10;;
68951;SDS011;56000;51.146;17.112;2023-02-28T11:15:23;8.60;;;6.00;;
68951;SDS011;56000;51.146;17.112;2023-02-28T11:17:59;8.80;;;5.80;;
68951;SDS011;56000;51.146;17.112;2023-02-28T11:20:52;8.60;;;5.80;;
68951;SDS011;56000;51.146;17.112;2023-02-28T11:23:29;11.00;;;6.40;;
68951;SDS011;56000;51.146;17.112;2023-02-28T11:26:06;15.20;;;7.40;;
68951;SDS011;56000;51.146;17.112;2023-02-28T11:28:41;9.50;;;6.70;;
68951;SDS011;56000;51.146;17.112;2023-02-28T11:31:19;13.90;;;7.20;;
68951;SDS011;56000;51.146;17.112;2023-02-28T11:33:53;15.20;;;6.90;;
68951;SDS011;56000;51.146;17.112;2023-02-28T11:36:29;11.90;;;6.90;;
68951;SDS011;56000;51.146;17.112;2023-02-28T11:39:09;10.50;;;6.80;;
68951;SDS011;56000;51.146;17.112;2023-02-28T11:42:01;11.30;;;7.30;;
68951;SDS011;56000;51.146;17.112;2023-02-28T11:44:51;11.80;;;7.30;;
68951;SDS011;56000;51.146;17.112;2023-02-28T11:47:37;16.70;;;8.00;;
68951;SDS011;56000;51.146;17.112;2023-02-28T11:50:23;12.40;;;7.50;;
68951;SDS011;56000;51.146;17.112;2023-02-28T11:53:16;16.70;;;7.90;;
68951;SDS011;56000;51.146;17.112;2023-02-28T11:55:59;13.60;;;7.00;;
68951;SDS011;56000;51.146;17.112;2023-02-28T11:58:43;12.40;;;7.40;;
68951;SDS011;56000;51.146;17.112;2023-02-28T12:01:41;12.00;;;7.20;;
68951;SDS011;56000;51.146;17.112;2023-02-28T12:04:35;13.90;;;7.70;;
68951;SDS011;56000;51.146;17.112;2023-02-28T12:07:20;16.10;;;8.20;;
68951;SDS011;56000;51.146;17.112;2023-02-28T12:10:06;13.70;;;7.50;;
68951;SDS011;56000;51.146;17.112;2023-02-28T12:12:55;12.70;;;7.10;;
68951;SDS011;56000;51.146;17.112;2023-02-28T12:18:56;10.30;;;6.80;;
68951;SDS011;56000;51.146;17.112;2023-02-28T12:21:50;11.00;;;7.40;;
68951;SDS011;56000;51.146;17.112;2023-02-28T12:25:13;23.20;;;13.00;;
68951;SDS011;56000;51.146;17.112;2023-02-28T12:27:55;12.10;;;7.60;;
68951;SDS011;56000;51.146;17.112;2023-02-28T12:30:30;11.70;;;7.40;;
68951;SDS011;56000;51.146;17.112;2023-02-28T12:33:07;11.50;;;7.50;;
68951;SDS011;56000;51.146;17.112;2023-02-28T12:35:47;11.90;;;7.30;;
68951;SDS011;56000;51.146;17.112;2023-02-28T12:38:27;11.00;;;7.10;;
68951;SDS011;56000;51.146;17.112;2023-02-28T12:41:08;9.50;;;6.70;;
68951;SDS011;56000;51.146;17.112;2023-02-28T12:43:46;11.60;;;6.20;;
68951;SDS011;56000;51.146;17.112;2023-02-28T12:46:25;11.90;;;6.30;;
68951;SDS011;56000;51.146;17.112;2023-02-28T12:51:41;10.50;;;7.30;;
68951;SDS011;56000;51.146;17.112;2023-02-28T12:54:21;9.80;;;6.50;;
68951;SDS011;56000;51.146;17.112;2023-02-28T12:57:01;12.60;;;7.70;;
68951;SDS011;56000;51.146;17.112;2023-02-28T12:59:41;10.20;;;6.50;;
68951;SDS011;56000;51.146;17.112;2023-02-28T13:02:37;15.30;;;7.50;;
68951;SDS011;56000;51.146;17.112;2023-02-28T13:08:53;10.70;;;7.90;;
68951;SDS011;56000;51.146;17.112;2023-02-28T13:11:38;13.00;;;7.30;;
68951;SDS011;56000;51.146;17.112;2023-02-28T13:14:24;12.10;;;7.00;;
68951;SDS011;56000;51.146;17.112;2023-02-28T13:17:03;12.90;;;8.10;;
68951;SDS011;56000;51.146;17.112;2023-02-28T13:19:45;13.00;;;8.40;;
68951;SDS011;56000;51.146;17.112;2023-02-28T13:22:41;12.20;;;8.30;;
68951;SDS011;56000;51.146;17.112;2023-02-28T13:32:20;15.40;;;9.50;;
68951;SDS011;56000;51.146;17.112;2023-02-28T13:38:36;18.80;;;9.60;;
68951;SDS011;56000;51.146;17.112;2023-02-28T13:44:27;17.70;;;10.30;;
68951;SDS011;56000;51.146;17.112;2023-02-28T13:47:27;18.30;;;9.50;;
68951;SDS011;56000;51.146;17.112;2023-02-28T13:50:24;17.00;;;9.90;;
68951;SDS011;56000;51.146;17.112;2023-02-28T13:56:21;15.60;;;8.60;;
68951;SDS011;56000;51.146;17.112;2023-02-28T13:59:16;19.10;;;8.90;;
68951;SDS011;56000;51.146;17.112;2023-02-28T14:02:03;16.40;;;8.10;;
68951;SDS011;56000;51.146;17.112;2023-02-28T14:04:59;15.80;;;8.30;;
68951;SDS011;56000;51.146;17.112;2023-02-28T14:07:40;17.30;;;7.50;;
68951;SDS011;56000;51.146;17.112;2023-02-28T14:10:35;15.00;;;7.90;;
68951;SDS011;56000;51.146;17.112;2023-02-28T14:13:41;17.40;;;8.60;;
68951;SDS011;56000;51.146;17.112;2023-02-28T14:16:20;15.00;;;8.10;;
68951;SDS011;56000;51.146;17.112;2023-02-28T14:19:00;16.10;;;8.50;;
68951;SDS011;56000;51.146;17.112;2023-02-28T14:21:43;18.10;;;9.80;;
68951;SDS011;56000;51.146;17.112;2023-02-28T14:24:52;17.40;;;9.40;;
68951;SDS011;56000;51.146;17.112;2023-02-28T14:27:44;16.70;;;8.50;;
68951;SDS011;56000;51.146;17.112;2023-02-28T14:33:45;14.00;;;7.50;;
68951;SDS011;56000;51.146;17.112;2023-02-28T14:36:30;13.60;;;7.30;;
68951;SDS011;56000;51.146;17.112;2023-02-28T14:39:10;16.60;;;7.00;;
68951;SDS011;56000;51.146;17.112;2023-02-28T14:41:48;15.80;;;8.40;;
68951;SDS011;56000;51.146;17.112;2023-02-28T14:44:22;12.70;;;7.00;;
68951;SDS011;56000;51.146;17.112;2023-02-28T14:46:57;12.90;;;5.90;;
68951;SDS011;56000;51.146;17.112;2023-02-28T14:49:37;14.50;;;7.30;;
68951;SDS011;56000;51.146;17.112;2023-02-28T14:52:17;14.80;;;7.10;;
68951;SDS011;56000;51.146;17.112;2023-02-28T14:54:55;12.20;;;6.90;;
68951;SDS011;56000;51.146;17.112;2023-02-28T14:57:30;13.50;;;7.00;;
68951;SDS011;56000;51.146;17.112;2023-02-28T15:00:11;14.20;;;7.10;;
68951;SDS011;56000;51.146;17.112;2023-02-28T15:02:51;17.10;;;7.70;;
68951;SDS011;56000;51.146;17.112;2023-02-28T15:05:29;22.40;;;11.10;;
68951;SDS011;56000;51.146;17.112;2023-02-28T15:08:06;16.40;;;8.00;;
68951;SDS011;56000;51.146;17.112;2023-02-28T15:13:17;12.40;;;6.70;;
68951;SDS011;56000;51.146;17.112;2023-02-28T15:15:53;11.20;;;6.10;;
68951;SDS011;56000;51.146;17.112;2023-02-28T15:18:36;12.20;;;5.80;;
68951;SDS011;56000;51.146;17.112;2023-02-28T15:21:18;10.50;;;5.40;;
68951;SDS011;56000;51.146;17.112;2023-02-28T15:23:53;9.30;;;5.30;;
68951;SDS011;56000;51.146;17.112;2023-02-28T15:26:31;8.80;;;5.20;;
68951;SDS011;56000;51.146;17.112;2023-02-28T15:29:08;11.20;;;5.80;;
68951;SDS011;56000;51.146;17.112;2023-02-28T15:31:48;12.70;;;6.70;;
68951;SDS011;56000;51.146;17.112;2023-02-28T15:34:35;13.50;;;7.40;;
68951;SDS011;56000;51.146;17.112;2023-02-28T15:37:38;11.60;;;6.00;;
68951;SDS011;56000;51.146;17.112;2023-02-28T15:40:22;14.20;;;7.10;;
68951;SDS011;56000;51.146;17.112;2023-02-28T15:43:04;14.20;;;6.40;;
68951;SDS011;56000;51.146;17.112;2023-02-28T15:45:46;11.60;;;5.40;;
68951;SDS011;56000;51.146;17.112;2023-02-28T15:48:23;11.00;;;6.10;;
68951;SDS011;56000;51.146;17.112;2023-02-28T15:51:02;12.50;;;6.70;;
68951;SDS011;56000;51.146;17.112;2023-02-28T15:53:43;14.70;;;7.30;;
68951;SDS011;56000;51.146;17.112;2023-02-28T15:56:24;12.80;;;6.60;;
68951;SDS011;56000;51.146;17.112;2023-02-28T15:59:03;16.00;;;7.10;;
68951;SDS011;56000;51.146;17.112;2023-02-28T16:01:38;13.80;;;6.50;;
68951;SDS011;56000;51.146;17.112;2023-02-28T16:04:16;14.30;;;5.70;;